Current | Forecast
Updated: 11:20 PM GMT on January 18, 2018
Observed at East Midlands, United Kingdom
Temperature 2°C
Windchill -3°C
Humidity 87%
Dew Point 0°C
Wind WSW at 22 km/h
Pressure 1004 hPa (Steady)
Conditions Partly Cloudy
Visibility 10.0 kilometers
UV 0 out of 16
Clouds (FEW) : 762 m
Yesterday's Maximum 9°C
Yesterday's Minimum 5°C approx.
Yesterday's Heating Degree Days 20 approx.
Sunrise8:08 AM GMT
Sunset4:26 PM GMT
Moon Rise8:48 AM GMT
Moon Set6:01 PM GMT
Moon PhaseMoon Phase
Waxing Crescent
Raw METARMETAR EGNX 182320Z 24012KT 9999 FEW025 02/00 Q1004


Monday
. High: 64° F.
Tuesday
. High: 62° F.
Wednesday
. High: 57° F.
Thursday
. High: 55° F.
Friday
. High: 57° F.
Saturday
. High: 57° F.
Sunday
. High: 60° F.
Monday
. High: 66° F.

Units: English | Metric

Find the Weather for any City, State or Zipcode, or Country:

U.S. State List | Severe Weather | Tropical Storms | Ski Conditions
United States | Canada | Central America | South America | Asia | Europe | Australia | Africa | Islands

Weather Underground

© Copyright 2018
The Weather Company, LLC